Phelps, Wisconsin
Current Conditions -  °F | °C
As of 11:15 AM on Friday 31 Oct 2014 (Local Time) from KLNL Reporting Station
Overcast Overcast  
Wind Chill: 19°   Ceiling: 2300
Heat Index: 29°   Visibility: 10mi
Dew Point: 23°   Wind: 14mph
Humidity: 78%   Direction: 20°NNE
Pressure: 30.41"   Gusts: 23mph
Location:  46.06°N, 89.09°W
Report Text: KLNL 311615Z AUTO 02012G20KT 10SM BKN023 BKN031 OVC050 M01/M05 A3041 RMK AO2 T10151049
Loading
Personal Weather Stations






























Interactive Weather Map
Tropical Storm Tracking
New forecast layout! Learn more

10-Day Weather Forecast

Advertisements
Track Severe Weather on mobile